Time;durP1;ratioP1;P1;durP2;ratioP2;P2;SDS_P1;SDS_P2;PMS_P1;PMS_P2;Temp;Humidity;BMP_temperature;BMP_pressure;BME280_temperature;BME280_humidity;BME280_pressure;Samples;Min_cycle;Max_cycle;Signal;HPM_P1;HPM_P2
2021/08/28 00:01:49;;;;;;;7.18;2.60;;;19.40;74.60;;;;;;5092963;28;20059;-69
2021/08/28 00:04:14;;;;;;;10.95;2.13;;;19.40;74.60;;;;;;5095676;28;20102;-69
2021/08/28 00:06:40;;;;;;;6.22;2.15;;;19.30;74.50;;;;;;5095140;28;20044;-70
2021/08/28 00:09:06;;;;;;;9.90;2.33;;;19.40;74.60;;;;;;5095430;28;20102;-69
2021/08/28 00:11:32;;;;;;;6.95;2.30;;;19.30;74.40;;;;;;5095772;28;20052;-69
2021/08/28 00:13:57;;;;;;;5.82;2.03;;;19.30;74.40;;;;;;5094655;28;20113;-70
2021/08/28 00:16:23;;;;;;;6.60;2.22;;;19.30;74.40;;;;;;5095494;28;20101;-69
2021/08/28 00:18:48;;;;;;;4.40;2.15;;;19.30;74.40;;;;;;5095002;28;20039;-70
2021/08/28 00:21:14;;;;;;;7.60;2.83;;;19.30;74.40;;;;;;5094983;28;20048;-69
2021/08/28 00:23:41;;;;;;;4.10;1.60;;;19.30;74.40;;;;;;5095126;28;20035;-70
2021/08/28 00:26:06;;;;;;;6.20;2.20;;;19.30;74.50;;;;;;5095010;28;20320;-69
2021/08/28 00:28:32;;;;;;;6.22;2.20;;;19.30;74.50;;;;;;5095297;28;20116;-70
2021/08/28 00:30:58;;;;;;;7.10;2.55;;;19.30;74.50;;;;;;5094993;28;20097;-69
2021/08/28 00:33:23;;;;;;;5.63;2.97;;;19.30;74.50;;;;;;5079095;28;20091;-70
2021/08/28 00:35:49;;;;;;;5.07;2.45;;;19.30;74.50;;;;;;5094079;28;20055;-69
2021/08/28 00:38:15;;;;;;;9.68;2.63;;;19.30;74.50;;;;;;5095179;28;20040;-70
2021/08/28 00:40:41;;;;;;;6.78;2.47;;;19.30;74.50;;;;;;5095081;28;20067;-71
2021/08/28 00:43:07;;;;;;;9.23;2.85;;;19.30;74.50;;;;;;5094723;28;20451;-70
2021/08/28 00:45:36;;;;;;;6.80;2.72;;;19.30;74.60;;;;;;5094848;28;20051;-69
2021/08/28 00:48:07;;;;;;;6.55;2.67;;;19.30;74.70;;;;;;5094807;28;20067;-71
2021/08/28 00:50:35;;;;;;;8.35;3.22;;;19.30;74.80;;;;;;5095600;28;20044;-70
2021/08/28 00:53:03;;;;;;;8.07;2.80;;;19.30;74.90;;;;;;5094880;28;20036;-72
2021/08/28 00:55:32;;;;;;;9.25;3.35;;;19.30;75.10;;;;;;5094404;28;20047;-70
2021/08/28 00:58:02;;;;;;;6.18;2.75;;;19.30;75.10;;;;;;5098717;28;20123;-70
2021/08/28 01:00:29;;;;;;;6.47;2.40;;;19.30;75.20;;;;;;5098560;28;20040;-70
2021/08/28 01:02:57;;;;;;;6.43;2.88;;;19.30;75.30;;;;;;5086919;28;20363;-70
2021/08/28 01:05:31;;;;;;;6.85;2.92;;;19.30;75.40;;;;;;5078010;28;20040;-70
2021/08/28 01:08:18;;;;;;;8.02;2.30;;;19.30;75.50;;;;;;5077896;28;20053;-71
2021/08/28 01:10:53;;;;;;;7.05;2.63;;;19.30;75.50;;;;;;5077984;28;20141;-71
2021/08/28 01:13:22;;;;;;;9.05;2.80;;;19.30;75.50;;;;;;5060457;28;20118;-70
2021/08/28 01:15:50;;;;;;;6.93;2.65;;;19.30;75.60;;;;;;5078034;28;20044;-70
2021/08/28 01:18:20;;;;;;;8.85;3.08;;;19.30;75.60;;;;;;5060582;28;20059;-70
2021/08/28 01:21:00;;;;;;;6.80;2.50;;;19.30;75.60;;;;;;5078005;28;20331;-71
2021/08/28 01:23:31;;;;;;;7.57;2.47;;;19.30;75.50;;;;;;5078338;28;20043;-71
2021/08/28 01:26:02;;;;;;;7.28;2.85;;;19.30;75.60;;;;;;5077622;28;20047;-70
2021/08/28 01:28:33;;;;;;;6.35;2.80;;;19.30;75.70;;;;;;5077629;28;20123;-70
2021/08/28 01:31:00;;;;;;;7.60;2.67;;;19.30;75.70;;;;;;5077885;28;20113;-70
2021/08/28 01:33:26;;;;;;;9.02;2.97;;;19.30;75.70;;;;;;5094979;28;20043;-70
2021/08/28 01:35:53;;;;;;;6.68;2.60;;;19.30;75.70;;;;;;5098198;28;20389;-70
2021/08/28 01:38:19;;;;;;;7.32;2.53;;;19.30;75.70;;;;;;5097697;28;20044;-69
2021/08/28 01:40:45;;;;;;;6.40;3.00;;;19.30;75.70;;;;;;5097828;28;20044;-69
2021/08/28 01:43:11;;;;;;;7.57;2.85;;;19.30;75.70;;;;;;5097825;28;20119;-71
2021/08/28 01:45:37;;;;;;;6.82;2.85;;;19.30;75.70;;;;;;5080231;28;20390;-70
2021/08/28 01:48:04;;;;;;;8.57;3.00;;;19.30;75.70;;;;;;5097249;28;20119;-70
2021/08/28 01:50:31;;;;;;;8.27;3.20;;;19.20;75.70;;;;;;5097360;28;20040;-69
2021/08/28 01:52:57;;;;;;;7.50;2.72;;;19.30;75.80;;;;;;5097982;28;20097;-70
2021/08/28 01:55:22;;;;;;;10.60;3.15;;;19.30;75.80;;;;;;5098137;28;20339;-70
2021/08/28 01:57:48;;;;;;;7.25;2.88;;;19.30;75.80;;;;;;5095330;28;20055;-71
2021/08/28 02:00:14;;;;;;;5.63;2.38;;;19.20;75.80;;;;;;5097628;28;20048;-70
2021/08/28 02:02:40;;;;;;;9.18;2.80;;;19.20;75.80;;;;;;5083923;28;20051;-70
2021/08/28 02:05:06;;;;;;;5.18;2.90;;;19.20;75.80;;;;;;5077056;28;20037;-70
2021/08/28 02:07:58;;;;;;;7.65;2.88;;;19.20;75.90;;;;;;5077125;28;20044;-70
2021/08/28 02:10:31;;;;;;;7.45;2.45;;;19.30;75.90;;;;;;5076647;28;20135;-70
2021/08/28 02:13:02;;;;;;;7.60;2.97;;;19.20;75.90;;;;;;5076303;28;20119;-70
2021/08/28 02:15:48;;;;;;;6.72;2.58;;;19.20;75.90;;;;;;5076880;28;20431;-70
2021/08/28 02:18:22;;;;;;;6.88;2.78;;;19.20;75.90;;;;;;5076867;28;20044;-70
2021/08/28 02:20:53;;;;;;;6.00;3.00;;;19.20;76.00;;;;;;5077268;28;20055;-70
2021/08/28 02:23:28;;;;;;;6.55;2.67;;;19.20;76.00;;;;;;5076424;28;20052;-71
2021/08/28 02:26:02;;;;;;;6.57;2.28;;;19.20;76.00;;;;;;5076632;28;20048;-71
2021/08/28 02:28:36;;;;;;;5.88;2.83;;;19.20;76.10;;;;;;5076728;28;20051;-70
2021/08/28 02:31:04;;;;;;;8.85;3.25;;;19.20;76.20;;;;;;5058867;28;20051;-70
2021/08/28 02:33:31;;;;;;;8.27;2.45;;;19.20;76.20;;;;;;5076021;28;20117;-69
2021/08/28 02:35:59;;;;;;;7.20;3.17;;;19.20;76.20;;;;;;5076194;28;20037;-70
2021/08/28 02:38:26;;;;;;;7.05;2.83;;;19.20;76.20;;;;;;5076276;28;20123;-71
2021/08/28 02:40:57;;;;;;;7.10;2.80;;;19.20;76.30;;;;;;5076355;28;20481;-70
2021/08/28 02:43:25;;;;;;;10.02;3.17;;;19.20;76.20;;;;;;5076369;28;20047;-69
2021/08/28 02:45:51;;;;;;;7.53;2.90;;;19.20;76.30;;;;;;5076355;28;20440;-69
2021/08/28 02:48:20;;;;;;;8.60;2.70;;;19.20;76.30;;;;;;5058410;28;20058;-70
2021/08/28 02:50:47;;;;;;;5.03;2.67;;;19.20;76.30;;;;;;5075914;28;20040;-70
2021/08/28 02:53:16;;;;;;;6.15;2.60;;;19.20;76.30;;;;;;5076293;28;20036;-70
2021/08/28 02:55:45;;;;;;;9.38;3.50;;;19.20;76.20;;;;;;5076760;28;20036;-70
2021/08/28 02:58:11;;;;;;;4.97;2.45;;;19.20;76.20;;;;;;5076055;28;20101;-72
2021/08/28 03:00:38;;;;;;;6.25;2.40;;;19.20;76.20;;;;;;5058613;28;20423;-70
2021/08/28 03:03:06;;;;;;;8.25;2.80;;;19.20;76.30;;;;;;5058452;28;20048;-70
2021/08/28 03:05:32;;;;;;;6.07;2.63;;;19.20;76.30;;;;;;5058434;28;20051;-70
2021/08/28 03:07:59;;;;;;;8.50;2.75;;;19.20;76.30;;;;;;5058402;28;20365;-70
2021/08/28 03:10:26;;;;;;;7.07;3.00;;;19.20;76.30;;;;;;5075816;28;20127;-70
2021/08/28 03:12:52;;;;;;;7.80;2.83;;;19.20;76.30;;;;;;5075490;28;20048;-71
2021/08/28 03:15:18;;;;;;;8.15;3.28;;;19.20;76.30;;;;;;5075333;28;20040;-71
2021/08/28 03:17:46;;;;;;;7.13;2.83;;;19.20;76.30;;;;;;5076245;28;20348;-71
2021/08/28 03:20:14;;;;;;;10.23;2.95;;;19.20;76.40;;;;;;5075832;28;20047;-70
2021/08/28 03:22:43;;;;;;;12.02;3.63;;;19.20;76.40;;;;;;5075403;28;20047;-70
2021/08/28 03:25:10;;;;;;;9.00;3.15;;;19.20;76.40;;;;;;5075745;28;20044;-71
2021/08/28 03:27:37;;;;;;;7.53;2.88;;;19.20;76.50;;;;;;5075790;28;20048;-71
2021/08/28 03:30:06;;;;;;;6.70;3.30;;;19.20;76.50;;;;;;5058608;28;20455;-71
2021/08/28 03:32:34;;;;;;;8.35;3.47;;;19.20;76.50;;;;;;5089888;28;20048;-71
2021/08/28 03:35:00;;;;;;;9.38;3.22;;;19.20;76.50;;;;;;5095517;28;20448;-70
2021/08/28 03:37:26;;;;;;;6.07;3.17;;;19.20;76.50;;;;;;5095568;28;20043;-71
2021/08/28 03:39:54;;;;;;;8.15;3.80;;;19.20;76.50;;;;;;5095014;28;20047;-70
2021/08/28 03:42:20;;;;;;;8.95;3.28;;;19.20;76.40;;;;;;5096072;28;20043;-70
2021/08/28 03:44:45;;;;;;;6.70;3.00;;;19.20;76.40;;;;;;5095357;28;20438;-70
2021/08/28 03:47:15;;;;;;;10.25;3.30;;;19.20;76.30;;;;;;5077578;28;20508;-70
2021/08/28 03:49:41;;;;;;;6.75;2.72;;;19.20;76.30;;;;;;5095694;28;20320;-70
2021/08/28 03:52:07;;;;;;;7.13;2.95;;;19.20;76.30;;;;;;5095354;28;20104;-70
2021/08/28 03:54:32;;;;;;;6.70;2.92;;;19.20;76.20;;;;;;5095149;28;20055;-69
2021/08/28 03:56:58;;;;;;;12.77;4.03;;;19.20;76.20;;;;;;5095311;28;20494;-70
2021/08/28 03:59:24;;;;;;;9.02;3.50;;;19.20;76.10;;;;;;5095704;28;20075;-70
2021/08/28 04:01:50;;;;;;;7.45;3.28;;;19.20;76.10;;;;;;5089354;28;20106;-70
2021/08/28 04:04:16;;;;;;;8.60;3.13;;;19.20;76.10;;;;;;5074949;28;20040;-70
2021/08/28 04:06:41;;;;;;;7.82;3.35;;;19.20;76.70;;;;;;5075295;28;20106;-70
2021/08/28 04:09:07;;;;;;;9.40;3.22;;;19.20;76.00;;;;;;5075086;28;20412;-70
2021/08/28 04:11:33;;;;;;;6.70;3.70;;;19.20;76.00;;;;;;5057626;28;20056;-69
2021/08/28 04:13:58;;;;;;;10.05;3.85;;;19.20;76.00;;;;;;5074534;28;20382;-69
2021/08/28 04:16:24;;;;;;;8.73;3.63;;;19.20;76.00;;;;;;5074808;28;20040;-70
2021/08/28 04:18:50;;;;;;;8.35;3.97;;;19.10;76.00;;;;;;5074952;28;20037;-69
2021/08/28 04:21:15;;;;;;;7.45;3.42;;;19.10;75.90;;;;;;5075211;28;20064;-71
2021/08/28 04:23:41;;;;;;;9.13;3.30;;;19.10;75.90;;;;;;5074752;28;20045;-70
2021/08/28 04:26:07;;;;;;;5.63;3.17;;;19.10;75.90;;;;;;5074422;28;20048;-70
2021/08/28 04:28:32;;;;;;;8.10;3.85;;;19.20;76.00;;;;;;5074743;28;20093;-69
2021/08/28 04:30:58;;;;;;;10.93;3.78;;;19.10;75.90;;;;;;5074760;28;20036;-69
2021/08/28 04:33:24;;;;;;;6.53;3.42;;;19.10;75.90;;;;;;5094591;28;20048;-70
2021/08/28 04:35:50;;;;;;;8.32;3.30;;;19.10;75.90;;;;;;5099657;28;20411;-71
2021/08/28 04:38:15;;;;;;;8.43;3.33;;;19.10;75.90;;;;;;5099032;28;20047;-69
2021/08/28 04:40:41;;;;;;;5.95;2.97;;;19.10;75.90;;;;;;5098695;28;20081;-70
2021/08/28 04:43:07;;;;;;;8.02;2.90;;;19.10;75.90;;;;;;5081184;28;20079;-70
2021/08/28 04:45:32;;;;;;;5.90;2.88;;;19.10;75.90;;;;;;5099025;28;20466;-70
2021/08/28 04:47:58;;;;;;;5.50;3.20;;;19.10;75.90;;;;;;5098940;28;20035;-70
2021/08/28 04:50:24;;;;;;;7.03;3.00;;;19.10;75.80;;;;;;5081149;28;20048;-70
2021/08/28 04:52:49;;;;;;;9.70;3.35;;;19.10;75.80;;;;;;5098697;28;20044;-71
2021/08/28 04:55:15;;;;;;;7.85;3.33;;;19.10;75.80;;;;;;5098553;28;20051;-70
2021/08/28 04:57:41;;;;;;;10.43;3.55;;;19.10;75.70;;;;;;5098245;28;20097;-71
2021/08/28 05:00:07;;;;;;;6.05;3.08;;;19.10;75.80;;;;;;5098769;28;20127;-70
2021/08/28 05:02:33;;;;;;;8.55;3.47;;;19.10;75.80;;;;;;5094958;28;20056;-70
2021/08/28 05:04:58;;;;;;;5.93;2.65;;;19.10;75.80;;;;;;5098053;28;20047;-69
2021/08/28 05:07:24;;;;;;;7.55;3.05;;;19.10;75.80;;;;;;5098504;28;20040;-70
2021/08/28 05:09:50;;;;;;;5.03;3.05;;;19.10;75.70;;;;;;5098940;28;20048;-70
2021/08/28 05:12:15;;;;;;;9.00;3.15;;;19.10;75.70;;;;;;5097872;28;20032;-70
2021/08/28 05:14:41;;;;;;;6.65;3.45;;;19.10;75.80;;;;;;5097976;28;20114;-71
2021/08/28 05:17:07;;;;;;;7.97;3.35;;;19.10;75.80;;;;;;5098178;28;20067;-70
2021/08/28 05:19:33;;;;;;;8.25;3.45;;;19.10;75.80;;;;;;5098491;28;20127;-70
2021/08/28 05:21:59;;;;;;;5.22;3.00;;;19.10;75.80;;;;;;5098270;28;20344;-70
2021/08/28 05:24:24;;;;;;;6.25;3.08;;;19.10;75.80;;;;;;5080438;28;20052;-69
2021/08/28 05:26:50;;;;;;;6.80;3.30;;;19.10;75.80;;;;;;5097810;28;20036;-70
2021/08/28 05:29:16;;;;;;;9.02;3.97;;;19.10;75.80;;;;;;5098158;28;20039;-69
2021/08/28 05:31:43;;;;;;;7.82;3.13;;;19.10;75.80;;;;;;5076228;28;20067;-70
2021/08/28 05:34:09;;;;;;;9.63;3.72;;;19.10;75.80;;;;;;5077731;28;20055;-70
2021/08/28 05:36:35;;;;;;;9.10;3.53;;;19.10;75.80;;;;;;5077775;28;20119;-69
2021/08/28 05:39:01;;;;;;;8.02;3.20;;;19.10;75.90;;;;;;5077782;28;20059;-71
2021/08/28 05:41:26;;;;;;;7.80;3.53;;;19.10;75.90;;;;;;5077367;28;20127;-71
2021/08/28 05:43:52;;;;;;;9.30;3.60;;;19.10;75.90;;;;;;5076835;28;20448;-69
2021/08/28 05:46:18;;;;;;;7.80;3.00;;;19.10;76.00;;;;;;5060436;28;20045;-70
2021/08/28 05:48:43;;;;;;;6.32;3.00;;;19.10;76.00;;;;;;5077971;28;20052;-70
2021/08/28 05:51:09;;;;;;;9.65;3.42;;;19.10;76.00;;;;;;5077569;28;20119;-69
2021/08/28 05:53:35;;;;;;;7.50;3.10;;;19.10;76.00;;;;;;5080652;28;20047;-69
2021/08/28 05:56:01;;;;;;;9.70;3.45;;;19.10;76.00;;;;;;5077035;28;20113;-69
2021/08/28 05:58:26;;;;;;;8.98;3.75;;;19.10;76.00;;;;;;5077230;28;20041;-69
2021/08/28 06:00:52;;;;;;;10.85;3.10;;;19.10;76.20;;;;;;5079715;28;20054;-69
2021/08/28 06:03:18;;;;;;;9.13;3.00;;;19.20;76.30;;;;;;5080975;28;20363;-70
2021/08/28 06:05:44;;;;;;;8.63;3.72;;;19.10;76.20;;;;;;5077146;28;20040;-71
2021/08/28 06:08:11;;;;;;;10.02;3.78;;;19.20;76.20;;;;;;5076775;28;20538;-69
2021/08/28 06:10:37;;;;;;;11.18;4.05;;;19.20;76.20;;;;;;5076980;28;20040;-71
2021/08/28 06:13:02;;;;;;;9.85;3.25;;;19.20;76.40;;;;;;5059770;28;20101;-70
2021/08/28 06:15:28;;;;;;;9.32;3.22;;;19.10;76.60;;;;;;5076665;28;20131;-67
2021/08/28 06:17:54;;;;;;;11.98;3.63;;;19.10;76.70;;;;;;5076373;28;20052;-70
2021/08/28 06:20:20;;;;;;;8.48;3.60;;;19.10;76.80;;;;;;5082225;28;20040;-70
2021/08/28 06:22:46;;;;;;;11.40;3.75;;;19.20;77.00;;;;;;5096828;28;20439;-69
2021/08/28 06:25:12;;;;;;;15.10;3.88;;;19.20;77.20;;;;;;5087659;28;20071;-70
2021/08/28 06:27:37;;;;;;;13.75;3.95;;;19.20;77.10;;;;;;5076522;28;20347;-70
2021/08/28 06:30:04;;;;;;;9.77;3.50;;;19.20;77.10;;;;;;5076436;28;20051;-70
2021/08/28 06:32:30;;;;;;;12.93;3.95;;;19.20;77.20;;;;;;5076437;28;20070;-69
2021/08/28 06:34:57;;;;;;;11.80;3.55;;;19.20;77.20;;;;;;5076338;28;20120;-71
2021/08/28 06:37:23;;;;;;;8.40;3.33;;;19.20;77.40;;;;;;5085202;28;20051;-76
2021/08/28 06:39:48;;;;;;;10.50;3.60;;;19.20;77.40;;;;;;5097238;28;20036;-69
2021/08/28 06:42:14;;;;;;;12.13;3.75;;;19.20;77.30;;;;;;5097156;28;20055;-69
2021/08/28 06:44:40;;;;;;;8.77;3.55;;;19.20;77.30;;;;;;5096438;28;20451;-69
2021/08/28 06:47:06;;;;;;;8.90;3.75;;;19.20;77.40;;;;;;5096570;28;20039;-69
2021/08/28 06:49:32;;;;;;;10.40;3.70;;;19.20;77.40;;;;;;5096519;28;20044;-68
2021/08/28 06:51:57;;;;;;;7.75;3.22;;;19.30;77.40;;;;;;5096475;28;20047;-69
2021/08/28 06:54:23;;;;;;;10.50;3.72;;;19.30;77.40;;;;;;5095193;28;20127;-69
2021/08/28 06:56:49;;;;;;;8.80;3.55;;;19.30;77.40;;;;;;5096128;28;20040;-69
2021/08/28 06:59:15;;;;;;;9.75;3.92;;;19.30;77.30;;;;;;5096122;28;20050;-69
2021/08/28 07:01:41;;;;;;;10.00;3.40;;;19.30;77.30;;;;;;5096358;28;20080;-69
2021/08/28 07:04:07;;;;;;;8.98;2.95;;;19.30;77.30;;;;;;5096378;28;20062;-69
2021/08/28 07:06:32;;;;;;;10.32;3.58;;;19.30;77.30;;;;;;5096163;28;20048;-69
2021/08/28 07:08:58;;;;;;;11.00;3.22;;;19.30;77.40;;;;;;5078989;28;20086;-69
2021/08/28 07:11:25;;;;;;;10.20;3.63;;;19.30;77.40;;;;;;5095864;28;20116;-69
2021/08/28 07:13:51;;;;;;;9.75;3.13;;;19.30;77.40;;;;;;5087275;28;20131;-68
2021/08/28 07:16:17;;;;;;;9.95;3.72;;;19.30;77.30;;;;;;5075742;28;20076;-70
2021/08/28 07:18:42;;;;;;;9.85;3.50;;;19.30;77.20;;;;;;5075764;28;20037;-69
2021/08/28 07:21:09;;;;;;;8.13;3.30;;;19.40;77.30;;;;;;5075684;28;20040;-68
2021/08/28 07:23:35;;;;;;;10.85;3.67;;;19.40;77.30;;;;;;5075527;28;20040;-69
2021/08/28 07:26:01;;;;;;;11.15;3.90;;;19.40;77.20;;;;;;5075288;28;20074;-68
2021/08/28 07:28:27;;;;;;;10.98;3.53;;;19.40;77.30;;;;;;5075825;28;20037;-69
2021/08/28 07:30:52;;;;;;;6.43;3.53;;;19.40;77.20;;;;;;5075506;28;20344;-69
2021/08/28 07:33:18;;;;;;;7.22;2.97;;;19.40;77.30;;;;;;5075503;28;20127;-71
2021/08/28 07:35:44;;;;;;;7.25;3.42;;;19.50;77.30;;;;;;5075242;28;20197;-69
2021/08/28 07:38:10;;;;;;;9.13;3.60;;;19.50;77.10;;;;;;5075386;28;20037;-69
2021/08/28 07:40:35;;;;;;;8.70;3.20;;;19.50;76.90;;;;;;5075657;28;20428;-69
2021/08/28 07:43:02;;;;;;;7.05;3.58;;;19.50;76.70;;;;;;5075164;28;20058;-68
2021/08/28 07:45:29;;;;;;;10.35;3.30;;;19.50;76.40;;;;;;5075562;28;20473;-68
2021/08/28 07:47:55;;;;;;;8.57;3.45;;;19.50;76.20;;;;;;5075402;28;20078;-70
2021/08/28 07:50:20;;;;;;;7.47;3.35;;;19.50;76.00;;;;;;5075367;28;20033;-70
2021/08/28 07:52:46;;;;;;;6.88;3.25;;;19.50;75.80;;;;;;5075182;28;20114;-70
2021/08/28 07:55:13;;;;;;;8.32;3.15;;;19.50;75.80;;;;;;5075413;28;20040;-71
2021/08/28 07:57:40;;;;;;;10.02;3.15;;;19.50;75.60;;;;;;5075324;28;20063;-72
2021/08/28 08:00:08;;;;;;;8.63;3.33;;;19.50;75.50;;;;;;5075874;28;20040;-72
2021/08/28 08:02:35;;;;;;;10.07;3.05;;;19.60;75.40;;;;;;5075060;28;20063;-68
2021/08/28 08:05:02;;;;;;;8.30;3.05;;;19.60;75.00;;;;;;5075385;28;20040;-69
2021/08/28 08:07:28;;;;;;;7.95;3.10;;;19.60;75.00;;;;;;5098951;28;20043;-68
2021/08/28 08:09:54;;;;;;;7.75;3.22;;;19.50;75.60;;;;;;5099398;28;20446;-70
2021/08/28 08:12:21;;;;;;;5.68;2.60;;;19.60;74.80;;;;;;5081752;28;20036;-72
2021/08/28 08:14:47;;;;;;;7.13;2.85;;;19.60;74.90;;;;;;5048164;28;20079;-73
2021/08/28 08:17:14;;;;;;;8.13;2.88;;;19.60;74.70;;;;;;5078781;28;20082;-69
2021/08/28 08:19:40;;;;;;;11.07;3.38;;;19.60;74.80;;;;;;5079946;28;20093;-70
2021/08/28 08:22:06;;;;;;;11.38;3.45;;;19.60;75.00;;;;;;5078422;28;20044;-71
2021/08/28 08:24:31;;;;;;;15.85;3.35;;;19.60;75.10;;;;;;5079798;28;20036;-71
2021/08/28 08:26:57;;;;;;;12.82;3.30;;;19.70;75.40;;;;;;5078709;28;20046;-77
2021/08/28 08:29:23;;;;;;;15.52;2.88;;;19.70;75.40;;;;;;5080074;28;20047;-70
2021/08/28 08:31:53;;;;;;;12.88;3.20;;;19.70;75.20;;;;;;5091902;28;20455;-70
2021/08/28 08:34:22;;;;;;;8.65;2.83;;;19.70;75.20;;;;;;5080547;28;20087;-70
2021/08/28 08:36:48;;;;;;;10.38;2.92;;;19.70;75.20;;;;;;5080913;28;20044;-70
2021/08/28 08:39:14;;;;;;;8.07;2.33;;;19.70;75.30;;;;;;5092287;28;20056;-70
2021/08/28 08:41:42;;;;;;;6.90;2.45;;;19.70;75.30;;;;;;5098852;28;20036;-70
2021/08/28 08:44:08;;;;;;;9.18;2.72;;;19.70;75.30;;;;;;5089827;28;20044;-70
2021/08/28 08:46:36;;;;;;;6.45;2.83;;;19.70;75.30;;;;;;5060710;28;20413;-71
2021/08/28 08:49:03;;;;;;;8.55;2.80;;;19.70;75.30;;;;;;5077994;28;20115;-70
2021/08/28 08:51:30;;;;;;;5.90;2.60;;;19.80;75.30;;;;;;5089701;28;20044;-70
2021/08/28 08:53:56;;;;;;;8.90;2.65;;;19.70;75.20;;;;;;5089979;28;20036;-69
2021/08/28 08:56:23;;;;;;;8.70;2.95;;;19.70;75.20;;;;;;5098823;28;20047;-70
2021/08/28 08:58:51;;;;;;;7.57;2.42;;;19.80;75.20;;;;;;5080357;28;20105;-70
2021/08/28 09:01:17;;;;;;;7.55;2.78;;;19.80;75.20;;;;;;5078067;28;20060;-70
2021/08/28 09:03:43;;;;;;;6.97;1.90;;;19.80;75.20;;;;;;5078892;28;20099;-70
2021/08/28 09:06:08;;;;;;;5.85;2.60;;;19.70;75.20;;;;;;5078009;28;20045;-70
2021/08/28 09:08:34;;;;;;;5.95;2.40;;;19.70;75.20;;;;;;5093952;28;20047;-71
2021/08/28 09:11:00;;;;;;;7.53;2.50;;;19.70;75.20;;;;;;5098254;28;20039;-69
2021/08/28 09:13:26;;;;;;;5.68;2.33;;;19.70;75.20;;;;;;5085584;28;20063;-70
2021/08/28 09:15:55;;;;;;;7.93;2.50;;;19.80;75.20;;;;;;5077889;28;20037;-70
2021/08/28 09:18:21;;;;;;;8.43;2.63;;;19.70;75.10;;;;;;5088189;28;20063;-71
2021/08/28 09:20:48;;;;;;;6.13;2.45;;;19.80;75.20;;;;;;5088537;28;20045;-70
2021/08/28 09:23:16;;;;;;;3.42;2.20;;;19.70;75.10;;;;;;5077873;28;20051;-70
2021/08/28 09:25:48;;;;;;;5.22;2.30;;;19.70;75.00;;;;;;5098146;28;20082;-74
2021/08/28 09:28:13;;;;;;;5.57;2.63;;;19.70;75.00;;;;;;5063600;28;20044;-76
2021/08/28 09:30:44;;;;;;;7.65;2.20;;;19.70;74.90;;;;;;5078643;28;20592;-78
2021/08/28 09:33:15;;;;;;;5.13;2.47;;;19.80;74.90;;;;;;5071258;28;20044;-71
2021/08/28 09:35:49;;;;;;;4.95;2.08;;;19.80;74.80;;;;;;5091594;28;20130;-70
2021/08/28 09:38:19;;;;;;;6.45;2.80;;;19.80;74.70;;;;;;5092606;28;20105;-71
2021/08/28 09:40:53;;;;;;;6.35;2.20;;;19.70;74.80;;;;;;5087422;28;20039;-71
2021/08/28 09:43:19;;;;;;;6.63;3.00;;;19.80;74.90;;;;;;5091083;28;20152;-79
2021/08/28 09:45:47;;;;;;;7.00;2.88;;;19.80;75.10;;;;;;5059910;28;20048;-81
2021/08/28 09:48:15;;;;;;;5.80;2.53;;;19.80;75.00;;;;;;5060133;28;20040;-81
2021/08/28 09:50:41;;;;;;;9.32;3.05;;;19.80;75.00;;;;;;5068056;28;20100;-78
2021/08/28 09:53:13;;;;;;;6.00;2.75;;;19.80;75.20;;;;;;5077159;28;20150;-76
2021/08/28 09:55:41;;;;;;;8.40;2.70;;;19.80;75.10;;;;;;5085510;28;20039;-77
2021/08/28 09:58:09;;;;;;;9.68;3.90;;;19.90;75.30;;;;;;5097785;28;20312;-78
2021/08/28 10:00:42;;;;;;;12.32;3.97;;;19.90;75.50;;;;;;5084359;28;20056;-78
2021/08/28 10:03:08;;;;;;;4.88;3.35;;;19.90;75.90;;;;;;5074043;28;20047;-79
2021/08/28 10:05:39;;;;;;;6.82;2.42;;;20.00;76.00;;;;;;5097271;28;20046;-79
2021/08/28 10:08:07;;;;;;;6.50;2.50;;;20.00;75.30;;;;;;5097148;28;20054;-76
2021/08/28 10:10:35;;;;;;;6.40;1.77;;;20.00;74.20;;;;;;5062512;28;20032;-78
2021/08/28 10:13:03;;;;;;;8.10;1.80;;;19.90;72.90;;;;;;5096918;28;20043;-73
2021/08/28 10:15:30;;;;;;;8.93;2.00;;;19.90;72.60;;;;;;5097006;28;20040;-72
2021/08/28 10:17:58;;;;;;;5.80;1.88;;;19.90;73.00;;;;;;5096980;28;20039;-74
2021/08/28 10:20:26;;;;;;;6.40;2.00;;;19.90;73.10;;;;;;5096639;28;20054;-73
2021/08/28 10:22:54;;;;;;;6.00;1.98;;;20.00;73.30;;;;;;5079120;28;20032;-74
2021/08/28 10:25:26;;;;;;;4.30;1.73;;;20.00;73.60;;;;;;5097027;28;20339;-73
2021/08/28 10:27:53;;;;;;;4.68;2.08;;;20.00;73.80;;;;;;5096847;28;20044;-73
2021/08/28 10:30:21;;;;;;;3.15;1.40;;;20.00;73.90;;;;;;5097121;28;20055;-73
2021/08/28 10:32:48;;;;;;;4.57;1.80;;;20.00;74.00;;;;;;5083771;28;20048;-74
2021/08/28 10:35:15;;;;;;;6.47;1.67;;;20.10;74.30;;;;;;5076596;28;20036;-73
2021/08/28 10:37:42;;;;;;;4.75;1.85;;;20.10;74.30;;;;;;5076314;28;20123;-74
2021/08/28 10:40:18;;;;;;;5.07;2.05;;;20.00;74.40;;;;;;5080052;28;20028;-73
2021/08/28 10:42:44;;;;;;;3.33;1.60;;;20.00;75.10;;;;;;5097142;28;20047;-74
2021/08/28 10:45:10;;;;;;;4.57;1.80;;;20.10;74.70;;;;;;5096431;28;20051;-73
2021/08/28 10:47:36;;;;;;;6.82;1.70;;;20.10;74.80;;;;;;5096353;28;20044;-74
2021/08/28 10:50:08;;;;;;;3.83;1.88;;;20.10;74.90;;;;;;5096552;28;20040;-74
2021/08/28 10:52:37;;;;;;;4.32;1.80;;;20.10;75.00;;;;;;5095960;28;20083;-74
2021/08/28 10:55:05;;;;;;;4.97;1.83;;;20.10;75.00;;;;;;5096703;28;20040;-73
2021/08/28 10:57:31;;;;;;;6.57;1.55;;;20.10;75.10;;;;;;5096604;28;20043;-75
2021/08/28 11:00:14;;;;;;;3.55;1.75;;;20.10;75.20;;;;;;5096482;28;20047;-74
2021/08/28 11:02:59;;;;;;;;;;;20.10;75.30;;;;;;5084454;28;20139;-73
2021/08/28 11:05:27;;;;;;;4.10;1.67;;;20.10;75.20;;;;;;5075949;28;20296;-74
2021/08/28 11:07:55;;;;;;;5.68;2.13;;;20.10;74.70;;;;;;5075529;28;20043;-73
2021/08/28 11:10:23;;;;;;;3.45;1.75;;;20.10;74.30;;;;;;5076508;28;20051;-73
2021/08/28 11:12:53;;;;;;;4.32;1.70;;;20.10;74.40;;;;;;5075864;28;20044;-73
2021/08/28 11:15:25;;;;;;;8.20;2.00;;;20.20;74.60;;;;;;5075959;28;20075;-72
2021/08/28 11:17:59;;;;;;;6.22;1.95;;;20.10;74.70;;;;;;5075572;28;20054;-73
2021/08/28 11:20:38;;;;;;;8.57;2.00;;;20.10;74.50;;;;;;5075331;28;20040;-72
2021/08/28 11:23:07;;;;;;;5.38;2.10;;;20.10;74.70;;;;;;5081553;28;20078;-73
2021/08/28 11:25:35;;;;;;;6.35;1.95;;;20.10;74.70;;;;;;5093888;28;20036;-72
2021/08/28 11:28:05;;;;;;;5.95;2.03;;;20.10;74.80;;;;;;5084103;28;20133;-73
2021/08/28 11:30:45;;;;;;;9.50;2.00;;;20.10;75.00;;;;;;5095667;28;20496;-73
2021/08/28 11:33:32;;;;;;;7.15;1.83;;;20.10;75.10;;;;;;5077820;28;20044;-73
2021/08/28 11:36:04;;;;;;;5.00;1.67;;;20.20;75.20;;;;;;5075031;28;20041;-73
2021/08/28 11:38:54;;;;;;;9.25;1.75;;;20.20;75.30;;;;;;5058394;28;20329;-73
2021/08/28 11:41:25;;;;;;;7.97;1.70;;;20.10;75.20;;;;;;5047260;28;20049;-72
2021/08/28 11:43:55;;;;;;;6.60;1.65;;;20.20;75.30;;;;;;5079687;28;20039;-73
2021/08/28 11:46:29;;;;;;;5.07;1.77;;;20.10;75.20;;;;;;5088340;28;20033;-73
2021/08/28 11:48:58;;;;;;;10.23;2.20;;;20.20;75.20;;;;;;5075289;28;20080;-73
2021/08/28 11:51:25;;;;;;;4.35;1.75;;;20.20;75.20;;;;;;5075150;28;20183;-73
2021/08/28 11:53:53;;;;;;;7.43;1.98;;;20.20;75.10;;;;;;5075002;28;20037;-73
2021/08/28 11:56:21;;;;;;;7.85;1.58;;;20.20;74.80;;;;;;5080275;28;20047;-73
2021/08/28 11:59:02;;;;;;;9.80;2.55;;;20.20;74.90;;;;;;5095349;28;20055;-73
2021/08/28 12:01:31;;;;;;;8.80;2.10;;;20.20;74.80;;;;;;5093425;28;20139;-74
2021/08/28 12:03:59;;;;;;;10.25;2.38;;;20.20;74.60;;;;;;5089497;28;20044;-73
2021/08/28 12:06:26;;;;;;;5.03;2.53;;;20.20;74.70;;;;;;5095243;28;20044;-77
2021/08/28 12:08:53;;;;;;;9.68;1.85;;;20.20;74.80;;;;;;5077344;28;20401;-70
2021/08/28 12:11:19;;;;;;;6.10;2.00;;;20.20;74.80;;;;;;5095016;28;20090;-71
2021/08/28 12:13:50;;;;;;;7.38;2.55;;;20.20;74.90;;;;;;5091651;28;20047;-72
2021/08/28 12:16:27;;;;;;;5.82;1.85;;;20.20;75.00;;;;;;5086011;28;20056;-72
2021/08/28 12:19:01;;;;;;;7.05;2.30;;;20.20;75.00;;;;;;5074930;28;20041;-73
2021/08/28 12:21:29;;;;;;;8.75;2.00;;;20.20;75.10;;;;;;5090140;28;20044;-72
2021/08/28 12:23:56;;;;;;;6.65;1.80;;;20.20;75.10;;;;;;5094755;28;20040;-72
2021/08/28 12:26:22;;;;;;;8.93;2.13;;;20.20;75.20;;;;;;5094935;28;20073;-72
2021/08/28 12:28:48;;;;;;;7.28;2.08;;;20.20;75.20;;;;;;5077566;28;20036;-72
2021/08/28 12:31:16;;;;;;;6.00;2.15;;;20.20;75.30;;;;;;5095098;28;20044;-73
2021/08/28 12:33:42;;;;;;;6.35;2.00;;;20.20;75.30;;;;;;5078354;28;20037;-73
2021/08/28 12:36:30;;;;;;;4.13;1.90;;;20.20;75.30;;;;;;5075369;28;20051;-72
2021/08/28 12:39:07;;;;;;;5.00;1.90;;;20.20;75.40;;;;;;5057500;28;20333;-72
2021/08/28 12:41:34;;;;;;;3.97;1.40;;;20.20;75.50;;;;;;5074558;28;20518;-72
2021/08/28 12:44:01;;;;;;;4.28;2.10;;;20.20;75.50;;;;;;5077467;28;20410;-72
2021/08/28 12:46:28;;;;;;;8.35;1.73;;;20.20;75.60;;;;;;5074617;28;20040;-72
2021/08/28 12:49:07;;;;;;;3.97;1.55;;;20.20;75.60;;;;;;5074672;28;20428;-72